Terminal Aerodrome Forecast
Issued by NWS

Home | Current Version | Previous Version | Text Only | Print | Product List | Glossary On
Versions: 1 2 3 4 5 6 7 8 9 10 11 12 13 14 15 16 17 18 19 20 21 22 23 24 25 26 27 28 29 30 31 32 33 34 35
000
FTUS41 KBOX 292322
TAFBAF
TAF
KBAF 292322Z 3000/3024 18007KT P6SM FEW250
     FM300800 VRB03KT 4SM BR SCT250
     FM301200 19005KT P6SM BKN150
     FM301600 21009KT P6SM SCT250
     FM301900 22011G23KT P6SM SCT100=

USA.gov is the U.S. government's official web portal to all federal, state and local government web resources and services.